Aérodrome :
LOGIN :

S'inscrire | Disclaimer

   EN    FR    IT 

 










Légende :    VFR   VFR Marginal   IFR   IFR Intensif   IFR Très Intensif
Visi : 
Plafond : 
>= 8 km
>= 3000ft
5 à 8 km
1000 à 3000 ft
1500m à 5 km
500 à 1000 ft
800 à 1500m
200 à 500 ft
< 800m
< 200 ft
Symboles :   Orages  Brouillard  Fortes neiges  Fortes précipitations  Vent > 20 kt
SIGMETs :   Divers  Orages  Givrage  Turbulence  Onde Orograph.  Cendres Volcan.







- Altitude de l'aérodrome : 1276 ft
- Code IATA : STR


EDDS - Stuttgart

DERNIER METAR :
  • 161450Z 08003KT CAVOK 16/M02 Q1027 NOSIG

METARs EXPIRÉS :
  • 161420Z 07004KT CAVOK 15/M01 Q1027 NOSIG
  • 161350Z 07004KT 030V130 CAVOK 15/M01 Q1027 NOSIG
  • 161320Z VRB02KT CAVOK 14/00 Q1027 NOSIG
  • 161250Z 13003KT 050V180 CAVOK 13/02 Q1028 NOSIG
  • 161220Z 09003KT 060V130 CAVOK 13/02 Q1028 NOSIG
  • 161150Z 09003KT 040V150 CAVOK 12/01 Q1028 NOSIG

TAF TAF EDDS
Valide du 16 à 12h jusqu'au 17 à 12h UTC


161100Z 1612/1712 VRB03KT CAVOK
Pas de NOTAMs connus pour ce terrain.



MET'MAP, la Météo Aéronautique d'un coup d'oeil ! - Copyright ORBIFLY Décembre 2007 - Disclaimer

ORBIFLY MET'MAP TEAM :

Programmation & Développement : Alexandra Zaïnal
Conception & Développement : Baudouin d'Aumeries
Co-Programmation & Développement : Marc-Olivier Méhu
Soutien technique & logistique : Manuel Goepfert

Contact : metmap@orbifly.com




SOURCES & CREDITS :

   NOAA